• Join FlightAware (Why Join?)
  • Login
  • US Flag 
11:38AM EDT


 

Airport Tracker/Info


-or-


 

Live Flight TrackerFlight Track Log ✈ SWA1303 ✈ 13-Apr-2013 ✈ KTPA - KSTL

Flight Track Log - Related Links

Times and Time Zones

All times are in EDT time to prevent confusion due to time zone crossing. See the SWA1303 flight status page for this flight to view local times or setup timezone preferences in your user account.

Time Position Orientation Groundspeed Altitude Reporting Facility
EDT Latitude Longitude Course Direction KTS MPH feet Rate Location/Type
04:06PM 27.9667 -82.5500 192° South 157 181 600  Level Tampa TRACON
04:07PM 27.9000 -82.5667 192° South 223 257 3,000 2,700 Climbing Tampa TRACON
04:09PM 27.8667 -82.6167 233° Southwest 221 254 7,200 3,060 Climbing Tampa TRACON
04:10PM 27.9333 -82.6500 336° Northwest 281 323 9,900 2,400 Climbing Tampa TRACON
04:11PM 28.0167 -82.6667 350° North 340 391 11,900 720 Climbing Tampa TRACON
04:12PM 28.1833 -82.7183 345° North 374 430 11,900 960 Level Jacksonville Center
04:13PM 28.2731 -82.7464 345° North 361 415 14,700 3,000 Climbing Jacksonville Center
04:14PM 28.3689 -82.7769 344° North 355 409 17,900 3,000 Climbing Jacksonville Center
04:15PM 28.4756 -82.7981 350° North 361 415 20,800 2,700 Climbing Jacksonville Center
04:16PM 28.5861 -82.8192 350° North 387 445 23,300 2,400 Climbing Jacksonville Center
04:17PM 28.7008 -82.8406 351° North 402 463 25,700 2,100 Climbing Jacksonville Center
04:18PM 28.8178 -82.8689 348° North 413 475 27,500 1,740 Climbing Jacksonville Center
04:19PM 28.9325 -82.9069 344° North 418 481 29,200 1,800 Climbing Jacksonville Center
04:20PM 29.0347 -82.9853 326° Northwest 426 490 31,100 2,220 Climbing Jacksonville Center
04:21PM 29.1369 -83.0589 328° Northwest 433 498 33,700 1,500 Climbing Jacksonville Center
04:22PM 29.2369 -83.1306 328° Northwest 433 498 34,200 1,140 Climbing Jacksonville Center
04:23PM 29.3350 -83.2022 328° Northwest 433 498 36,000 900 Climbing Jacksonville Center
04:24PM 29.4289 -83.2692 328° Northwest 412 474 36,000  Level Jacksonville Center
04:25PM 29.5203 -83.3389 326° Northwest 407 468 36,000 120 Level Jacksonville Center
04:26PM 29.6161 -83.4061 329° Northwest 402 463 36,300 960 Climbing Jacksonville Center
04:27PM 29.7078 -83.4761 326° Northwest 402 463 38,000 840 Climbing Jacksonville Center
04:28PM 29.7889 -83.5339 328° Northwest 396 456 38,000  Level Jacksonville Center
04:29PM 29.8825 -83.6017 328° Northwest 396 456 38,000  Level Jacksonville Center
04:30PM 29.9739 -83.6694 327° Northwest 396 456 38,000  Level Jacksonville Center
04:31PM 30.0653 -83.7350 328° Northwest 396 456 38,000  Level Jacksonville Center
04:32PM 30.1589 -83.8031 328° Northwest 396 456 38,000  Level Jacksonville Center
04:33PM 30.2503 -83.8714 327° Northwest 396 456 38,000  Level Jacksonville Center
04:34PM 30.3436 -83.9397 328° Northwest 396 456 38,000  Level Jacksonville Center
04:35PM 30.4350 -84.0106 326° Northwest 396 456 38,000  Level Jacksonville Center
04:36PM 30.5283 -84.0767 329° Northwest 396 456 38,000  Level Jacksonville Center
04:37PM 30.6256 -84.1528 326° Northwest 390 449 38,000  Level Jacksonville Center
04:38PM 30.7189 -84.2217 328° Northwest 395 455 38,000  Level Jacksonville Center
04:39PM 30.8100 -84.2906 327° Northwest 395 455 38,000  Level Jacksonville Center
04:40PM 30.9031 -84.3622 327° Northwest 395 455 38,000  Level Jacksonville Center
04:41PM 30.9964 -84.4314 328° Northwest 395 455 38,000  Level Jacksonville Center
04:42PM 31.0914 -84.5033 327° Northwest 395 455 38,000  Level Jacksonville Center
04:44PM 31.2694 -84.6389 327° Northwest 404 465 38,000  Level Atlanta Center
04:45PM 31.3608 -84.7100 326° Northwest 399 459 38,000  Level Atlanta Center
04:46PM 31.4583 -84.7839 327° Northwest 399 459 38,000  Level Atlanta Center
04:47PM 31.5519 -84.8553 327° Northwest 399 459 38,000  Level Atlanta Center
04:48PM 31.6475 -84.9292 327° Northwest 404 465 38,000  Level Atlanta Center
04:49PM 31.7408 -85.0033 326° Northwest 404 465 38,000  Level Atlanta Center
04:50PM 31.8361 -85.0753 327° Northwest 409 471 38,000  Level Atlanta Center
04:51PM 31.9442 -85.1525 329° Northwest 403 464 38,000  Level Atlanta Center
04:52PM 32.0372 -85.2272 326° Northwest 410 472 38,000  Level Atlanta Center
04:53PM 32.1264 -85.2969 326° Northwest 410 472 38,000  Level Atlanta Center
04:54PM 32.2236 -85.3694 328° Northwest 410 472 38,000  Level Atlanta Center
04:55PM 32.3167 -85.4447 326° Northwest 408 470 38,000  Level Atlanta Center
04:56PM 32.4100 -85.5150 328° Northwest 408 470 38,000  Level Atlanta Center
04:57PM 32.5028 -85.5906 326° Northwest 408 470 38,000  Level Atlanta Center
04:58PM 32.5958 -85.6611 327° Northwest 402 463 38,000  Level Atlanta Center
04:59PM 32.6869 -85.7319 327° Northwest 402 463 38,000  Level Atlanta Center
05:00PM 32.7797 -85.8078 326° Northwest 397 457 38,000  Level Atlanta Center
05:01PM 32.8747 -85.8814 327° Northwest 397 457 38,000  Level Atlanta Center
05:02PM 32.9694 -85.9603 325° Northwest 397 457 38,000  Level Atlanta Center
05:03PM 33.0622 -86.0317 327° Northwest 397 457 38,000  Level Atlanta Center
05:05PM 33.1515 -86.1275 327° Northwest  Level FlightAware Approximate
05:05PM 33.2517 -86.1850 327° Northwest 406 467 38,000  Level Atlanta Center
05:06PM 33.3442 -86.2619 325° Northwest 411 473 38,000  Level Atlanta Center
05:07PM 33.4389 -86.3342 328° Northwest 411 473 38,000  Level Atlanta Center
05:08PM 33.5333 -86.4139 325° Northwest 411 473 38,000  Level Atlanta Center
05:09PM 33.6156 -86.4783 327° Northwest 406 467 38,000  Level Atlanta Center
05:10PM 33.7061 -86.5508 326° Northwest 400 460 38,000  Level Atlanta Center
05:11PM 33.8006 -86.6286 326° Northwest 400 460 38,000  Level Atlanta Center
05:12PM 33.8928 -86.7039 326° Northwest 400 460 38,000  Level Atlanta Center
05:13PM 33.9869 -86.7822 325° Northwest 395 455 38,000  Level Atlanta Center
05:14PM 34.0814 -86.8578 326° Northwest 400 460 38,000  Level Atlanta Center
05:15PM 34.1372 -86.9042 325° Northwest 415 478 38,000  Level Memphis Center
05:16PM 34.2228 -86.9786 324° Northwest 415 478 38,000  Level Memphis Center
05:17PM 34.3186 -87.0553 327° Northwest 415 478 38,000  Level Memphis Center
05:18PM 34.4106 -87.1347 325° Northwest 415 478 38,000  Level Memphis Center
05:19PM 34.5061 -87.2092 327° Northwest 410 472 38,000  Level Memphis Center
05:20PM 34.6044 -87.2964 324° Northwest 404 465 38,000 -480 Level Memphis Center
05:21PM 34.6958 -87.3714 326° Northwest 404 465 37,100 -960 Descending Memphis Center
05:22PM 34.7875 -87.4517 324° Northwest 404 465 36,100 -600 Descending Memphis Center
05:23PM 34.8789 -87.5269 326° Northwest 404 465 36,000 -60 Descending Memphis Center
05:24PM 34.9706 -87.6025 326° Northwest 404 465 36,000  Level Memphis Center
05:25PM 35.0575 -87.6783 324° Northwest 404 465 36,000  Level Memphis Center
05:26PM 35.1425 -87.7467 327° Northwest 397 457 36,000  Level Memphis Center
05:27PM 35.2358 -87.8225 326° Northwest 402 463 36,000  Level Memphis Center
05:28PM 35.3250 -87.9014 324° Northwest 402 463 36,000  Level Memphis Center
05:29PM 35.4142 -87.9803 324° Northwest 402 463 36,000  Level Memphis Center
05:30PM 35.5053 -88.0592 325° Northwest 409 471 36,000  Level Memphis Center
05:31PM 35.6008 -88.1408 325° Northwest 409 471 36,000  Level Memphis Center
05:32PM 35.7000 -88.2172 328° Northwest 404 465 36,000  Level Memphis Center
05:33PM 35.7911 -88.2969 325° Northwest 404 465 36,000  Level Memphis Center
05:34PM 35.8800 -88.3742 325° Northwest 404 465 36,000  Level Memphis Center
05:35PM 35.9708 -88.4539 325° Northwest 404 465 36,000  Level Memphis Center
05:36PM 36.0617 -88.5339 325° Northwest 399 459 36,000  Level Memphis Center
05:37PM 36.1525 -88.6142 324° Northwest 399 459 36,000  Level Memphis Center
05:38PM 36.2433 -88.6919 325° Northwest 404 465 36,000  Level Memphis Center
05:39PM 36.3361 -88.7753 324° Northwest 404 465 36,000  Level Memphis Center
05:40PM 36.4267 -88.8508 326° Northwest 404 465 36,000 -240 Level Memphis Center
05:41PM 36.5172 -88.9342 324° Northwest 404 465 35,600 -780 Descending Memphis Center
05:42PM 36.6078 -89.0128 325° Northwest 404 465 34,500 -840 Descending Memphis Center
05:43PM 36.6961 -89.0914 324° Northwest 404 465 34,000 -300 Descending Memphis Center
05:44PM 36.7825 -89.1731 323° Northwest 399 459 34,000  Level Memphis Center
05:45PM 36.8686 -89.2522 324° Northwest 387 445 34,000 -60 Level Memphis Center
05:46PM 36.9567 -89.3289 325° Northwest 387 445 33,900 -600 Descending Memphis Center
05:47PM 37.0450 -89.4108 323° Northwest 387 445 32,900 -2,400 Descending Memphis Center
05:49PM 37.1819 -89.5311 325° Northwest 396 456 27,500 -2,580 Descending Kansas City Center
05:50PM 37.3039 -89.6133 332° Northwest 411 473 26,000 -1,200 Descending Kansas City Center
05:51PM 37.4117 -89.6717 337° Northwest 417 480 25,200 -1,500 Descending Kansas City Center
05:52PM 37.5183 -89.7308 336° Northwest 420 483 22,900 -1,560 Descending Kansas City Center
05:53PM 37.6217 -89.7878 336° Northwest 414 476 22,000 -960 Descending Kansas City Center
05:54PM 37.7242 -89.8444 336° Northwest 408 470 21,000 -1,260 Descending Kansas City Center
05:55PM 37.8239 -89.9003 336° Northwest 401 461 19,400 -2,100 Descending Kansas City Center
05:55PM 37.8814 -89.8747 19° North 370 426 17,800 -2,940 Descending FAA TRACON SMA TRACON (SMA)
05:56PM 37.9100 -89.8900 337° Northwest 363 418 16,900 -2,880 Descending FAA TRACON SMA TRACON (SMA)
05:56PM 37.9456 -89.9092 337° Northwest 361 415 15,900 -2,640 Descending FAA TRACON SMA TRACON (SMA)
05:56PM 37.9728 -89.9256 335° Northwest 356 410 15,100 -2,340 Descending FAA TRACON SMA TRACON (SMA)
05:57PM 38.0003 -89.9403 337° Northwest 352 405 14,400 -2,520 Descending FAA TRACON SMA TRACON (SMA)
05:57PM 38.0339 -89.9600 335° Northwest 344 396 13,500 -2,580 Descending FAA TRACON SMA TRACON (SMA)
05:57PM 38.0603 -89.9756 335° Northwest 341 392 12,700 -2,280 Descending FAA TRACON SMA TRACON (SMA)
05:58PM 38.0869 -89.9897 337° Northwest 337 388 12,000 -2,400 Descending FAA TRACON SMA TRACON (SMA)
05:58PM 38.1194 -90.0069 337° Northwest 332 382 11,100 -1,800 Descending FAA TRACON SMA TRACON (SMA)
05:58PM 38.1475 -90.0139 349° North 334 384 10,800 -900 Descending FAA TRACON SMA TRACON (SMA)
05:59PM 38.1767 -90.0164 356° North 337 388 10,500 -780 Descending FAA TRACON SMA TRACON (SMA)
05:59PM 38.2106 -90.0208 354° North 326 375 10,300 -600 Descending FAA TRACON SMA TRACON (SMA)
05:59PM 38.2367 -90.0242 354° North 311 358 10,100 -480 Descending FAA TRACON SMA TRACON (SMA)
06:00PM 38.2611 -90.0267 355° North 297 342 10,000 -900 Descending FAA TRACON SMA TRACON (SMA)
06:00PM 38.2911 -90.0300 355° North 282 325 9,500 -1,380 Descending FAA TRACON SMA TRACON (SMA)
06:00PM 38.3147 -90.0322 356° North 278 320 9,100 -1,080 Descending FAA TRACON SMA TRACON (SMA)
06:01PM 38.3383 -90.0353 354° North 277 319 8,800 -780 Descending FAA TRACON SMA TRACON (SMA)
06:01PM 38.3661 -90.0381 356° North 267 307 8,600 -480 Descending FAA TRACON SMA TRACON (SMA)
06:01PM 38.3872 -90.0411 354° North 253 291 8,500 -600 Descending FAA TRACON SMA TRACON (SMA)
06:02PM 38.4125 -90.0442 355° North 239 275 8,200 -960 Descending FAA TRACON SMA TRACON (SMA)
06:02PM 38.4322 -90.0461 356° North 232 267 7,900 -780 Descending FAA TRACON SMA TRACON (SMA)
06:02PM 38.4517 -90.0478 356° North 229 264 7,700 -960 Descending FAA TRACON SMA TRACON (SMA)
06:03PM 38.4758 -90.0511 354° North 227 261 7,200 -1,380 Descending FAA TRACON SMA TRACON (SMA)
06:03PM 38.5003 -90.0539 355° North 229 264 6,700 -1,200 Descending FAA TRACON SMA TRACON (SMA)
06:03PM 38.5150 -90.0558 354° North 230 265 6,500 -1,020 Descending FAA TRACON SMA TRACON (SMA)
06:04PM 38.5394 -90.0586 355° North 231 266 6,100 -1,200 Descending FAA TRACON SMA TRACON (SMA)
06:04PM 38.5592 -90.0603 356° North 230 265 5,700 -1,200 Descending FAA TRACON SMA TRACON (SMA)
06:04PM 38.5786 -90.0628 354° North 228 262 5,300 -1,380 Descending FAA TRACON SMA TRACON (SMA)
06:05PM 38.6033 -90.0658 354° North 232 267 4,800 -1,200 Descending FAA TRACON SMA TRACON (SMA)
06:05PM 38.6233 -90.0689 353° North 233 268 4,500 -780 Descending FAA TRACON SMA TRACON (SMA)
06:05PM 38.6389 -90.0814 328° Northwest 229 264 4,300 -1,080 Descending FAA TRACON SMA TRACON (SMA)
06:06PM 38.6508 -90.1064 301° West 217 250 3,800 -1,080 Descending FAA TRACON SMA TRACON (SMA)
06:06PM 38.6594 -90.1269 298° West 213 245 3,600 -600 Descending FAA TRACON SMA TRACON (SMA)
06:06PM 38.6686 -90.1450 303° West 202 232 3,400 -780 Descending FAA TRACON SMA TRACON (SMA)
06:07PM 38.6786 -90.1678 299° West 191 220 3,100 -1,200 Descending FAA TRACON SMA TRACON (SMA)
06:07PM 38.6861 -90.1844 300° West 180 207 2,600 -1,380 Descending FAA TRACON SMA TRACON (SMA)
06:07PM 38.6933 -90.2014 299° West 177 204 2,200 -1,260 Descending FAA TRACON SMA TRACON (SMA)
06:08PM 38.7028 -90.2208 302° West 169 194 1,800 -900 Descending FAA TRACON SMA TRACON (SMA)
06:08PM 38.7094 -90.2350 301° West 155 178 1,600 -780 Descending FAA TRACON SMA TRACON (SMA)
06:08PM 38.7158 -90.2478 303° West 143 165 1,300 -900 Descending FAA TRACON SMA TRACON (SMA)
06:09PM 38.7239 -90.2639 303° West 138 159 1,000 -900 Descending FAA TRACON SMA TRACON (SMA)
06:09PM 38.7303 -90.2769 302° West 138 159 700 -780 Descending FAA TRACON SMA TRACON (SMA)
06:09PM 38.7397 -90.2836 331° Northwest 162 186 500 -660 Descending FAA TRACON SMA TRACON (SMA)
06:11PM 38.7487 -90.3700 322° Northwest  Level Estimated